Weather at Kleine Brogel - EBBL


metar: EBBL 170055Z 19004KT 9999 SCT240 07/M01 Q1026 BLU

28 minuten geleden, om 00:55 UTC, de wind blies met windsnelheden van 2.1 meter per seconde(4.6 mijl per uur) vanuit Zuid nabij Kleine Brogel. De temperatuur was 7 °C (45 °F), en de barometerdruk was 1,026 hPa (30.30 inHg). De relatieve vochtigheid was 56.7%. er was verspreide bewolking op een hoogte van 7315 meter (24000 voet). De zichtbaarheid was >10 kilometer (>6.2 mijl).

temperature image   windir image sky image 

Last 24 hour graph Kleine Brogel - EBBL